Time;durP1;ratioP1;P1;durP2;ratioP2;P2;SDS_P1;SDS_P2;PMS_P1;PMS_P2;Temp;Humidity;BMP_temperature;BMP_pressure;BME280_temperature;BME280_humidity;BME280_pressure;Samples;Min_cycle;Max_cycle;Signal;HPM_P1;HPM_P2
2022/04/20 00:02:07;;;;;;;4.47;2.60;;;;;;;-145.69;71.79;71864.06;5075603;28;20202;-77
2022/04/20 00:04:34;;;;;;;5.83;3.03;;;;;;;-145.69;72.71;71872.03;5075701;28;20201;-76
2022/04/20 00:07:00;;;;;;;4.03;2.83;;;;;;;-145.69;72.91;71880.00;5075652;28;20206;-76
2022/04/20 00:09:28;;;;;;;8.53;3.10;;;;;;;-145.69;73.50;71880.00;5075646;28;20199;-77
2022/04/20 00:11:56;;;;;;;7.00;3.50;;;;;;;-145.69;74.18;71872.03;5075271;28;20253;-76
2022/04/20 00:14:22;;;;;;;5.40;3.27;;;;;;;-145.69;74.14;71868.06;5075335;28;20197;-76
2022/04/20 00:16:49;;;;;;;5.47;3.43;;;;;;;-145.69;74.72;71880.00;5074835;28;20716;-76
2022/04/20 00:19:15;;;;;;;6.67;3.00;;;;;;;-145.69;74.44;71864.06;5075303;28;20202;-77
2022/04/20 00:21:42;;;;;;;9.33;3.33;;;;;;;-145.69;74.39;71862.06;5075468;28;20206;-78
2022/04/20 00:24:10;;;;;;;9.80;3.03;;;;;;;-145.69;74.28;71870.03;5075410;28;20206;-77
2022/04/20 00:26:38;;;;;;;6.53;3.40;;;;;;;-145.69;75.57;71878.00;5075325;28;20199;-76
2022/04/20 00:29:04;;;;;;;5.30;3.43;;;;;;;-145.69;75.77;71880.00;5075187;28;20195;-76
2022/04/20 00:31:33;;;;;;;5.87;3.17;;;;;;;-145.69;76.77;71881.97;5074815;28;20207;-78
2022/04/20 00:33:59;;;;;;;6.43;3.00;;;;;;;-145.69;77.36;71903.88;5059203;28;20207;-77
2022/04/20 00:36:26;;;;;;;9.03;3.70;;;;;;;-145.69;77.62;71907.84;5055049;28;20227;-77
2022/04/20 00:38:53;;;;;;;7.13;3.67;;;;;;;-145.69;78.77;71911.84;5054978;28;20567;-77
2022/04/20 00:41:19;;;;;;;5.57;3.43;;;;;;;-145.69;79.31;71929.75;5054768;28;20207;-77
2022/04/20 00:43:47;;;;;;;5.43;3.50;;;;;;;-145.69;79.41;71927.75;5054046;28;20395;-76
2022/04/20 00:46:18;;;;;;;8.20;4.18;;;;;;;-145.69;80.22;71935.72;5053815;28;20470;-77
2022/04/20 00:48:44;;;;;;;5.30;3.90;;;;;;;-145.69;80.36;71927.75;5054657;28;20203;-77
2022/04/20 00:51:11;;;;;;;6.13;3.37;;;;;;;-145.69;80.37;71931.72;5054748;28;20222;-77
2022/04/20 00:53:37;;;;;;;6.27;3.50;;;;;;;-145.69;81.57;71947.66;5054678;28;20196;-77
2022/04/20 00:56:05;;;;;;;8.87;3.37;;;;;;;-145.69;81.55;71945.66;5054522;28;20231;-76
2022/04/20 00:58:32;;;;;;;6.27;3.97;;;;;;;-145.69;82.73;71951.63;5054579;28;20210;-76
2022/04/20 01:01:00;;;;;;;5.77;3.93;;;;;;;-145.69;82.53;71945.66;5054432;28;20705;-78
2022/04/20 01:03:29;;;;;;;7.20;3.57;;;;;;;-145.69;83.33;71951.63;5066123;28;20195;-77
2022/04/20 01:05:56;;;;;;;5.27;3.40;;;;;;;-145.69;84.57;71973.53;5074218;28;20666;-76
2022/04/20 01:08:22;;;;;;;7.83;4.20;;;;;;;-145.69;84.86;71963.56;5074241;28;20198;-79
2022/04/20 01:10:49;;;;;;;5.93;3.87;;;;;;;-145.69;85.75;71975.50;5074189;28;20207;-77
2022/04/20 01:13:15;;;;;;;10.87;4.40;;;;;;;-145.69;85.99;71981.50;5074385;28;20195;-77
2022/04/20 01:15:43;;;;;;;7.70;4.37;;;;;;;-145.69;87.30;71987.47;5073878;28;20229;-76
2022/04/20 01:18:15;;;;;;;5.93;4.33;;;;;;;-145.69;86.21;71965.56;5073876;28;20250;-77
2022/04/20 01:20:44;;;;;;;10.20;4.53;;;;;;;-145.69;86.18;71967.56;5073907;28;20198;-76
2022/04/20 01:23:12;;;;;;;5.90;4.33;;;;;;;-145.69;84.83;71973.53;5073962;28;20199;-77
2022/04/20 01:25:40;;;;;;;6.30;3.67;;;;;;;-145.69;85.42;71981.50;5073718;28;21254;-76
2022/04/20 01:28:07;;;;;;;5.63;3.93;;;;;;;-145.69;84.95;71999.41;5073972;28;20202;-77
2022/04/20 01:30:33;;;;;;;9.57;4.40;;;;;;;-145.69;83.92;71999.41;5073891;28;20214;-76
2022/04/20 01:33:01;;;;;;;7.50;4.30;;;;;;;-145.69;83.77;71999.41;5073463;28;20277;-77
2022/04/20 01:35:27;;;;;;;7.13;4.30;;;;;;;-145.69;82.18;71995.41;5073660;28;20195;-76
2022/04/20 01:37:55;;;;;;;5.60;3.77;;;;;;;-145.69;82.14;71999.41;5073410;28;20202;-76
2022/04/20 01:40:24;;;;;;;8.17;3.70;;;;;;;-145.69;80.52;72001.38;5073720;28;20210;-78
2022/04/20 01:42:51;;;;;;;5.87;3.63;;;;;;;-145.69;81.68;72007.34;5073369;28;20234;-76
2022/04/20 01:45:18;;;;;;;4.27;3.00;;;;;;;-145.69;81.06;72001.38;5073652;28;20195;-76
2022/04/20 01:47:44;;;;;;;8.60;3.57;;;;;;;-145.69;80.14;71997.41;5073703;28;20230;-77
2022/04/20 01:50:11;;;;;;;9.13;3.60;;;;;;;-145.69;79.95;72007.34;5073480;28;20538;-77
2022/04/20 01:52:37;;;;;;;8.77;3.37;;;;;;;-145.69;79.98;72005.38;5073544;28;20218;-77
2022/04/20 01:55:06;;;;;;;8.10;3.77;;;;;;;-145.69;80.50;72007.34;5073684;28;20206;-77
2022/04/20 01:57:33;;;;;;;5.80;3.37;;;;;;;-145.69;78.89;72001.38;5072790;28;20222;-77
2022/04/20 01:59:59;;;;;;;7.57;3.50;;;;;;;-145.69;79.14;72011.34;5073610;28;20225;-76
2022/04/20 02:02:39;;;;;;;8.60;3.40;;;;;;;-145.69;79.57;72009.34;5073552;28;20203;-78
2022/04/20 02:05:09;;;;;;;6.17;3.53;;;;;;;-145.69;79.44;72017.31;5053436;28;20226;-77
2022/04/20 02:07:39;;;;;;;5.97;3.57;;;;;;;-145.69;79.90;72039.19;5053380;28;20203;-77
2022/04/20 02:10:07;;;;;;;4.40;3.17;;;;;;;-145.69;80.27;72043.19;5053670;28;20221;-78
2022/04/20 02:12:34;;;;;;;6.13;3.20;;;;;;;-145.69;79.69;72041.19;5053443;28;20203;-76
2022/04/20 02:15:04;;;;;;;7.10;3.77;;;;;;;-145.69;78.13;72027.25;5059487;28;20649;-76
2022/04/20 02:17:31;;;;;;;5.63;3.00;;;;;;;-145.69;78.85;72041.19;5073018;28;20596;-76
2022/04/20 02:20:00;;;;;;;8.27;3.43;;;;;;;-145.69;77.87;72047.16;5073585;28;20198;-77
2022/04/20 02:22:27;;;;;;;4.33;2.93;;;;;;;-145.69;78.26;72055.13;5073473;28;20547;-77
2022/04/20 02:24:53;;;;;;;10.70;3.70;;;;;;;-145.69;77.35;72065.06;5073167;28;20293;-77
2022/04/20 02:27:21;;;;;;;5.93;3.03;;;;;;;-145.69;77.80;72075.03;5068869;28;20293;-77
2022/04/20 02:29:48;;;;;;;5.90;3.00;;;;;;;-145.69;77.05;72075.03;5073122;28;20199;-76
2022/04/20 02:32:14;;;;;;;6.60;3.00;;;;;;;-145.69;76.66;72090.94;5072801;28;20226;-77
2022/04/20 02:34:41;;;;;;;5.17;3.23;;;;;;;-145.69;75.40;72065.06;5073319;28;20201;-77
2022/04/20 02:37:07;;;;;;;5.88;2.90;;;;;;;-145.69;75.42;72063.09;5072563;28;20467;-77
2022/04/20 02:39:35;;;;;;;6.90;3.23;;;;;;;-145.69;75.06;72073.03;5073064;28;20224;-77
2022/04/20 02:42:02;;;;;;;6.47;2.80;;;;;;;-145.69;74.29;72075.03;5072765;28;20199;-77
2022/04/20 02:44:30;;;;;;;5.20;2.87;;;;;;;-145.69;75.11;72094.94;5073138;28;20203;-77
2022/04/20 02:47:01;;;;;;;6.37;2.50;;;;;;;-145.69;73.62;72079.00;5072567;28;20652;-77
2022/04/20 02:49:28;;;;;;;3.70;2.53;;;;;;;-145.69;72.78;72077.00;5073188;28;20222;-77
2022/04/20 02:51:54;;;;;;;5.73;2.70;;;;;;;-145.69;73.00;72081.00;5072805;28;20553;-77
2022/04/20 02:54:22;;;;;;;5.27;2.77;;;;;;;-145.69;73.67;72092.94;5072861;28;20569;-77
2022/04/20 02:56:51;;;;;;;3.77;2.53;;;;;;;-145.69;73.79;72100.91;5072798;28;20699;-77
2022/04/20 02:59:17;;;;;;;6.33;2.40;;;;;;;-145.69;73.89;72110.84;5072717;28;20207;-77
2022/04/20 03:01:45;;;;;;;9.13;2.80;;;;;;;-145.69;74.01;72114.81;5072893;28;20203;-77
2022/04/20 03:04:14;;;;;;;2.90;2.13;;;;;;;-145.69;73.49;72104.88;5072907;28;20202;-77
2022/04/20 03:06:41;;;;;;;5.30;3.40;;;;;;;-145.69;73.19;72096.91;5072658;28;20206;-77
2022/04/20 03:09:08;;;;;;;2.97;2.23;;;;;;;-145.69;74.79;72102.88;5076766;28;20239;-76
2022/04/20 03:11:34;;;;;;;6.23;2.60;;;;;;;-145.69;74.59;72106.88;5076298;28;21973;-77
2022/04/20 03:14:02;;;;;;;5.25;2.60;;;;;;;-145.69;74.50;72090.94;5075742;28;20449;-77
2022/04/20 03:16:29;;;;;;;4.17;2.70;;;;;;;-145.69;73.47;72098.91;5076690;28;20262;-76
2022/04/20 03:18:57;;;;;;;3.70;2.57;;;;;;;-145.69;72.81;72102.88;5076533;28;20206;-76
2022/04/20 03:21:23;;;;;;;3.37;2.40;;;;;;;-145.69;72.73;72090.94;5076558;28;20206;-77
2022/04/20 03:23:50;;;;;;;4.17;2.13;;;;;;;-145.69;72.33;72094.94;5076348;28;20685;-77
2022/04/20 03:26:16;;;;;;;4.37;2.63;;;;;;;-145.69;72.40;72110.84;5076323;28;20260;-77
2022/04/20 03:28:45;;;;;;;3.67;2.00;;;;;;;-145.69;72.55;72102.88;5076634;28;20199;-75
2022/04/20 03:31:11;;;;;;;4.53;2.20;;;;;;;-145.69;71.69;72100.91;5076424;28;20608;-76
2022/04/20 03:33:38;;;;;;;4.17;2.30;;;;;;;-145.69;70.65;72104.88;5076067;28;20222;-77
2022/04/20 03:36:07;;;;;;;4.70;2.53;;;;;;;-145.69;71.04;72114.81;5076271;28;20237;-79
2022/04/20 03:38:36;;;;;;;3.50;2.20;;;;;;;-145.69;71.16;72124.78;5076021;28;20712;-78
2022/04/20 03:41:04;;;;;;;2.80;2.03;;;;;;;-145.69;69.67;72116.81;5076043;28;20199;-78
2022/04/20 03:43:31;;;;;;;3.97;1.90;;;;;;;-145.69;67.46;72090.94;5076296;28;20210;-78
2022/04/20 03:45:57;;;;;;;3.63;2.30;;;;;;;-145.69;68.65;72110.84;5076118;28;20210;-78
2022/04/20 03:48:24;;;;;;;4.67;2.27;;;;;;;-145.69;67.83;72118.81;5076142;28;20284;-77
2022/04/20 03:50:50;;;;;;;2.90;2.17;;;;;;;-145.69;66.78;72102.88;5075982;28;20206;-78
2022/04/20 03:53:18;;;;;;;4.70;2.00;;;;;;;-145.69;66.86;72110.84;5073888;28;20521;-78
2022/04/20 03:55:45;;;;;;;3.87;2.50;;;;;;;-145.69;65.18;72102.88;5075760;28;20203;-78
2022/04/20 03:58:14;;;;;;;3.60;1.87;;;;;;;-145.69;65.38;72114.81;5075848;28;20223;-78
2022/04/20 04:00:42;;;;;;;2.93;2.07;;;;;;;-145.69;66.83;72126.78;5075694;28;20210;-78
2022/04/20 04:03:09;;;;;;;4.20;1.90;;;;;;;-145.69;65.64;72130.75;5075512;28;20191;-77
2022/04/20 04:05:35;;;;;;;4.43;2.00;;;;;;;-145.69;65.69;72152.66;5075699;28;20203;-78
2022/04/20 04:08:05;;;;;;;7.57;2.40;;;;;;;-145.69;66.12;72162.59;5075281;28;20209;-78
2022/04/20 04:10:33;;;;;;;3.87;2.00;;;;;;;-145.69;65.69;72168.56;5075406;28;20275;-77
2022/04/20 04:12:59;;;;;;;3.80;2.00;;;;;;;-145.69;65.78;72186.47;5075465;28;20198;-78
2022/04/20 04:15:26;;;;;;;3.57;2.00;;;;;;;-145.69;65.79;72160.59;5075591;28;20203;-78
2022/04/20 04:17:58;;;;;;;2.97;1.87;;;;;;;-145.69;68.44;72194.44;5075099;28;20234;-77
2022/04/20 04:20:25;;;;;;;4.50;1.93;;;;;;;-145.69;68.69;72202.41;5070544;28;20242;-78
2022/04/20 04:22:52;;;;;;;4.33;1.87;;;;;;;-145.69;67.75;72214.34;5074017;28;20206;-78
2022/04/20 04:25:19;;;;;;;5.20;2.10;;;;;;;-145.69;67.35;72226.28;5075303;28;20623;-78
2022/04/20 04:27:48;;;;;;;2.93;1.73;;;;;;;-145.69;66.53;72222.31;5075194;28;20284;-77
2022/04/20 04:30:14;;;;;;;4.90;1.80;;;;;;;-145.69;67.63;72222.31;5075241;28;20199;-78
2022/04/20 04:32:41;;;;;;;6.18;1.98;;;;;;;-145.69;67.08;72214.34;5073608;28;20441;-77
2022/04/20 04:35:10;;;;;;;4.23;1.80;;;;;;;-145.69;67.41;72226.28;5074806;28;20230;-77
2022/04/20 04:37:37;;;;;;;3.03;1.53;;;;;;;-145.69;68.27;72232.25;5074942;28;20237;-78
2022/04/20 04:40:07;;;;;;;2.10;1.60;;;;;;;-145.69;67.10;72226.28;5074999;28;20205;-77
2022/04/20 04:42:37;;;;;;;2.60;1.70;;;;;;;-145.69;68.08;72236.22;5075851;28;20207;-78
2022/04/20 04:50:40;;;;;;;2.80;1.90;;;;;;;-145.69;64.09;72188.47;5074898;28;20247;-78
2022/04/20 04:53:13;;;;;;;5.80;1.97;;;;;;;-145.69;63.86;72174.53;5074537;28;20244;-79
2022/04/20 04:55:40;;;;;;;3.07;1.80;;;;;;;-145.69;62.87;72164.59;5074664;28;20751;-78
2022/04/20 04:58:06;;;;;;;3.33;1.93;;;;;;;-145.69;63.38;72182.50;5074837;28;20325;-78
2022/04/20 05:00:34;;;;;;;3.83;1.93;;;;;;;-145.69;65.66;72192.44;5074396;28;20714;-78
2022/04/20 05:03:01;;;;;;;4.80;2.13;;;;;;;-145.69;63.44;72172.53;5074583;28;20203;-78
2022/04/20 05:05:27;;;;;;;2.93;1.90;;;;;;;-145.69;63.36;72166.56;5074598;28;20199;-78
2022/04/20 05:07:54;;;;;;;2.53;1.87;;;;;;;-145.69;61.84;72154.63;5074570;28;20692;-78
2022/04/20 05:10:21;;;;;;;3.17;1.43;;;;;;;-145.69;63.09;72150.66;5074836;28;20217;-78
2022/04/20 05:12:48;;;;;;;3.37;1.70;;;;;;;-145.69;63.63;72152.66;5074378;28;20232;-78
2022/04/20 05:15:14;;;;;;;2.73;1.70;;;;;;;-145.69;62.74;72148.66;5074981;28;20256;-77
2022/04/20 05:17:42;;;;;;;2.97;1.60;;;;;;;-145.69;62.82;72142.69;5074275;28;20241;-77
2022/04/20 05:20:12;;;;;;;2.03;1.40;;;;;;;-145.69;63.74;72142.69;5074441;28;20209;-77
2022/04/20 05:22:38;;;;;;;3.20;1.60;;;;;;;-145.69;62.79;72134.72;5074395;28;20593;-77
2022/04/20 05:25:06;;;;;;;3.83;1.70;;;;;;;-145.69;62.87;72122.78;5074013;28;20616;-77
2022/04/20 05:27:35;;;;;;;5.90;1.90;;;;;;;-145.69;60.90;72118.81;5074310;28;20209;-77
2022/04/20 05:30:02;;;;;;;3.57;1.73;;;;;;;-145.69;62.37;72112.84;5073757;28;20206;-77
2022/04/20 05:32:28;;;;;;;5.03;1.77;;;;;;;-145.69;58.09;72090.94;5073656;28;20191;-77
2022/04/20 05:34:56;;;;;;;5.53;1.80;;;;;;;-145.69;56.29;72073.03;5074156;28;20202;-77
2022/04/20 05:42:52;;;;;;;5.77;1.50;;;;;;;-145.69;55.49;72023.28;5073739;28;20248;-78
2022/04/20 05:45:19;;;;;;;3.07;1.60;;;;;;;-145.69;56.14;72011.34;5073690;28;20571;-77
2022/04/20 05:47:46;;;;;;;1.97;1.50;;;;;;;-145.69;54.95;72011.34;5073884;28;20198;-77
2022/04/20 05:50:14;;;;;;;2.50;1.57;;;;;;;-145.69;53.79;71989.44;5073177;28;20203;-77
2022/04/20 05:52:42;;;;;;;2.87;1.70;;;;;;;-145.69;53.62;71979.50;5073848;28;20203;-77
2022/04/20 05:55:09;;;;;;;2.57;1.53;;;;;;;-145.69;50.64;71955.63;5073678;28;20199;-77
2022/04/20 05:57:40;;;;;;;3.10;1.80;;;;;;;-145.69;50.84;71935.72;5073203;28;20314;-77
2022/04/20 06:00:09;;;;;;;3.70;1.70;;;;;;;-145.69;53.04;71919.78;5073506;28;20206;-77
2022/04/20 06:02:36;;;;;;;2.50;1.60;;;;;;;-145.69;52.39;71899.88;5073084;28;20277;-77
2022/04/20 06:05:03;;;;;;;2.10;1.57;;;;;;;-145.69;50.41;71885.97;5073521;28;20202;-77
2022/04/20 06:07:37;;;;;;;3.37;1.60;;;;;;;-145.69;49.25;71868.06;5073154;28;20665;-77
2022/04/20 06:10:08;;;;;;;1.70;1.50;;;;;;;-145.69;50.45;71870.03;5073278;28;20222;-77
2022/04/20 06:12:37;;;;;;;3.13;2.20;;;;;;;-145.69;49.42;71850.13;5073309;28;20198;-77
2022/04/20 06:15:05;;;;;;;2.83;1.60;;;;;;;-145.69;48.81;71850.13;5072977;28;20202;-77
2022/04/20 06:17:38;;;;;;;3.07;1.83;;;;;;;-145.69;49.05;71836.22;5073027;28;20242;-77
2022/04/20 06:20:06;;;;;;;4.40;1.63;;;;;;;-145.69;49.37;71824.25;5073344;28;20199;-77
2022/04/20 06:22:33;;;;;;;3.10;1.57;;;;;;;-145.69;49.08;71828.25;5073153;28;20286;-78
2022/04/20 06:25:02;;;;;;;5.30;1.70;;;;;;;-145.69;49.46;71826.25;5069089;28;20206;-77
2022/04/20 06:27:29;;;;;;;1.93;1.60;;;;;;;-145.69;49.95;71828.25;5073101;28;20654;-77
2022/04/20 06:29:55;;;;;;;4.37;2.03;;;;;;;-145.69;50.26;71836.22;5073104;28;20210;-77
2022/04/20 06:32:23;;;;;;;1.90;1.60;;;;;;;-145.69;52.04;71832.22;5073373;28;20211;-77
2022/04/20 06:34:50;;;;;;;4.23;1.97;;;;;;;-145.69;51.38;71816.31;5073142;28;20203;-78
2022/04/20 06:37:17;;;;;;;2.83;1.70;;;;;;;-145.69;52.42;71822.28;5073045;28;20222;-77
2022/04/20 06:39:45;;;;;;;2.60;1.80;;;;;;;-145.69;52.04;71808.34;5073115;28;20241;-77
2022/04/20 06:42:12;;;;;;;3.67;2.20;;;;;;;-145.69;52.31;71800.38;5072410;28;20739;-77
2022/04/20 06:44:38;;;;;;;2.63;1.83;;;;;;;-145.69;51.77;71784.47;5073369;28;20203;-77
2022/04/20 06:47:05;;;;;;;2.93;1.90;;;;;;;-145.69;52.21;71786.47;5073047;28;20203;-77
2022/04/20 06:49:32;;;;;;;7.27;1.97;;;;;;;-145.69;52.34;71784.47;5072856;28;20202;-77
2022/04/20 07:00:12;;;;;;;7.30;1.90;;;;;;;-145.69;53.90;71732.72;5073089;28;20201;-78
2022/04/20 07:02:39;;;;;;;6.70;2.40;;;;;;;-145.69;53.56;71724.75;5072323;28;20237;-78
2022/04/20 07:05:06;;;;;;;3.38;2.40;;;;;;;-145.69;54.15;71700.88;5071992;28;20810;-77
2022/04/20 07:07:33;;;;;;;6.03;2.30;;;;;;;-145.69;53.50;71686.97;5072929;28;20198;-78
2022/04/20 07:09:59;;;;;;;4.83;2.57;;;;;;;-145.69;52.17;71680.97;5073076;28;20228;-78
2022/04/20 07:12:27;;;;;;;6.13;2.37;;;;;;;-145.69;54.43;71690.94;5072621;28;20203;-77
2022/04/20 07:14:54;;;;;;;5.30;2.13;;;;;;;-145.69;55.11;71688.94;5072557;28;20233;-78
2022/04/20 07:17:20;;;;;;;4.80;1.97;;;;;;;-145.69;53.63;71686.97;5072489;28;20701;-79
2022/04/20 07:19:47;;;;;;;5.03;2.40;;;;;;;-145.69;53.83;71698.91;5072183;28;20195;-78
2022/04/20 07:22:13;;;;;;;3.07;2.03;;;;;;;-145.69;54.27;71675.00;5072386;28;20202;-78
2022/04/20 07:24:40;;;;;;;3.07;2.10;;;;;;;-145.69;52.80;71665.06;5072286;28;20199;-79
2022/04/20 07:27:06;;;;;;;3.77;2.20;;;;;;;-145.69;51.96;71641.19;5072513;28;20209;-77
2022/04/20 07:29:34;;;;;;;4.53;2.40;;;;;;;-145.69;53.66;71609.34;5072221;28;20206;-77
2022/04/20 07:32:03;;;;;;;6.80;2.20;;;;;;;-145.69;51.62;71613.31;5072323;28;20206;-78
2022/04/20 07:34:30;;;;;;;4.75;2.47;;;;;;;-145.69;52.40;71595.41;5071974;28;20445;-76
2022/04/20 07:36:56;;;;;;;3.63;2.50;;;;;;;-145.69;51.79;71607.34;5072232;28;20203;-77
2022/04/20 07:39:22;;;;;;;3.37;2.30;;;;;;;-145.69;52.74;71623.28;5072347;28;20238;-77
2022/04/20 07:41:49;;;;;;;3.87;2.57;;;;;;;-145.69;51.45;71619.28;5071836;28;20198;-76
2022/04/20 07:44:17;;;;;;;3.13;2.20;;;;;;;-145.69;51.78;71605.38;5071955;28;20568;-77
2022/04/20 07:46:45;;;;;;;4.43;2.63;;;;;;;-145.69;52.92;71609.34;5071998;28;20206;-77
2022/04/20 07:52:01;;;;;;;3.60;2.30;;;;;;;-145.69;51.96;71601.38;5072490;28;20850;-79
2022/04/20 07:54:28;;;;;;;6.67;2.63;;;;;;;-145.69;54.84;71549.66;5073227;28;20199;-80
2022/04/20 07:56:55;;;;;;;2.90;2.03;;;;;;;-145.69;54.00;71557.59;5055764;28;20554;-77
2022/04/20 07:59:21;;;;;;;5.47;1.93;;;;;;;-145.69;51.58;71549.66;5055478;28;20231;-79
2022/04/20 08:01:49;;;;;;;2.60;2.17;;;;;;;-145.69;50.52;71583.47;5055917;28;20203;-77
2022/04/20 08:04:16;;;;;;;3.90;2.30;;;;;;;-145.69;52.08;71575.50;5055583;28;20203;-77
2022/04/20 08:06:42;;;;;;;4.13;2.73;;;;;;;-145.69;53.20;71557.59;5069418;28;20203;-78
2022/04/20 08:09:09;;;;;;;2.87;2.10;;;;;;;-145.69;53.10;71551.63;5075677;28;20557;-78
2022/04/20 08:11:37;;;;;;;6.47;2.50;;;;;;;-145.69;53.00;71515.81;5075156;28;20213;-78
2022/04/20 08:14:13;;;;;;;6.93;2.53;;;;;;;-145.69;51.54;71533.72;5075626;28;20897;-79
2022/04/20 08:16:44;;;;;;;5.57;2.87;;;;;;;-145.69;51.66;71509.84;5075206;28;20248;-78
2022/04/20 08:19:12;;;;;;;4.03;2.30;;;;;;;-145.69;52.17;71503.88;5075397;28;20223;-78
2022/04/20 08:21:38;;;;;;;9.07;3.00;;;;;;;-145.69;52.82;71499.91;5075047;28;20202;-78
2022/04/20 08:24:06;;;;;;;6.77;2.40;;;;;;;-145.69;50.44;71491.94;5075091;28;20202;-79
2022/04/20 08:26:33;;;;;;;3.20;2.47;;;;;;;-145.69;50.27;71450.16;5075270;28;20204;-77
2022/04/20 08:28:59;;;;;;;4.87;2.60;;;;;;;-145.69;51.33;71456.13;5075235;28;20209;-78
2022/04/20 08:31:26;;;;;;;3.83;2.50;;;;;;;-145.69;50.16;71495.91;5074390;28;20199;-78
2022/04/20 08:33:52;;;;;;;3.23;2.30;;;;;;;-145.69;50.34;71515.81;5072154;28;20201;-78
2022/04/20 08:36:20;;;;;;;3.57;2.20;;;;;;;-145.69;52.47;71521.78;5074659;28;20252;-78
2022/04/20 08:38:46;;;;;;;4.30;2.43;;;;;;;-145.69;51.20;71482.00;5074376;28;20222;-78
2022/04/20 08:41:17;;;;;;;2.83;2.20;;;;;;;-145.69;51.39;71466.06;5074259;28;20207;-78
2022/04/20 08:43:43;;;;;;;4.43;2.10;;;;;;;-145.69;49.91;71464.09;5074930;28;20538;-78
2022/04/20 08:46:18;;;;;;;5.80;2.40;;;;;;;-145.69;50.78;71466.06;5074367;28;20194;-78
2022/04/20 08:48:47;;;;;;;3.87;2.53;;;;;;;-145.69;53.95;71422.28;5074641;28;20213;-78
2022/04/20 08:51:14;;;;;;;4.83;2.30;;;;;;;-145.69;50.59;71394.44;5074665;28;20554;-77
2022/04/20 08:53:45;;;;;;;2.83;2.10;;;;;;;-145.69;48.04;71394.44;5074688;28;20202;-77
2022/04/20 08:58:58;;;;;;;6.00;2.10;;;;;;;-145.69;46.48;71390.47;5074039;28;20703;-77
2022/04/20 09:01:27;;;;;;;2.93;1.90;;;;;;;-145.69;46.27;71414.34;5074474;28;20198;-77
2022/04/20 09:03:55;;;;;;;8.43;2.83;;;;;;;-145.69;46.25;71374.53;5074168;28;20229;-76
2022/04/20 09:06:24;;;;;;;4.13;2.10;;;;;;;-145.69;45.15;71360.59;5073940;28;20206;-76
2022/04/20 09:08:52;;;;;;;6.13;2.20;;;;;;;-145.69;47.41;71356.63;5073826;28;20203;-76
2022/04/20 09:11:20;;;;;;;4.87;2.50;;;;;;;-145.69;47.53;71326.78;5074006;28;20207;-77
2022/04/20 09:13:47;;;;;;;5.47;2.47;;;;;;;-145.69;47.32;71326.78;5074178;28;20350;-78
2022/04/20 09:16:14;;;;;;;3.67;2.17;;;;;;;-145.69;47.15;71320.81;5073434;28;20290;-78
2022/04/20 09:18:42;;;;;;;3.87;2.60;;;;;;;-145.69;48.13;71324.78;5073898;28;20708;-79
2022/04/20 09:21:10;;;;;;;4.70;2.43;;;;;;;-145.69;46.75;71322.81;5073937;28;20199;-80
2022/04/20 09:23:37;;;;;;;3.83;2.23;;;;;;;-145.69;44.25;71366.56;5073932;28;20206;-80
2022/04/20 09:26:12;;;;;;;5.30;2.60;;;;;;;-145.69;44.45;71344.69;5074008;28;20210;-79
2022/04/20 09:28:42;;;;;;;7.13;2.23;;;;;;;-145.69;44.36;71344.69;5073517;28;20546;-80
2022/04/20 09:31:09;;;;;;;5.20;2.10;;;;;;;-145.69;42.64;71342.69;5073779;28;20718;-80
2022/04/20 09:33:43;;;;;;;3.63;2.10;;;;;;;-145.69;42.51;71330.75;5073875;28;20206;-80
2022/04/20 09:36:10;;;;;;;4.00;2.22;;;;;;;-145.69;43.10;71334.75;5073140;28;20460;-79
2022/04/20 09:38:39;;;;;;;3.73;2.20;;;;;;;-145.69;42.67;71314.84;5053727;28;20223;-80
2022/04/20 09:41:08;;;;;;;2.73;2.03;;;;;;;-145.69;42.69;71328.78;5053561;28;20249;-80
2022/04/20 09:43:39;;;;;;;4.43;2.20;;;;;;;-145.69;45.17;71294.94;5053145;28;20304;-77
2022/04/20 09:48:50;;;;;;;6.87;2.03;;;;;;;-145.69;43.53;71302.91;5053729;28;20239;-78
2022/04/20 09:49:06;;;;;;;2.80;2.00;;;;;;;-145.69;43.86;71320.81;5052685;28;20285;-77
2022/04/20 09:51:37;;;;;;;3.67;2.27;;;;;;;-145.69;43.13;71304.91;5053271;28;20215;-77
2022/04/20 09:54:04;;;;;;;6.93;2.50;;;;;;;-145.69;42.54;71292.94;5052876;28;20282;-76
2022/04/20 09:56:32;;;;;;;6.67;2.50;;;;;;;-145.69;43.08;71288.97;5053369;28;20204;-76
2022/04/20 09:59:01;;;;;;;3.10;2.13;;;;;;;-145.69;43.29;71285.00;5053339;28;20277;-78
2022/04/20 10:01:32;;;;;;;2.60;2.03;;;;;;;-145.69;50.29;71255.16;5053165;28;20558;-76
2022/04/20 10:03:59;;;;;;;6.80;2.70;;;;;;;-145.69;41.58;71277.03;5060782;28;20191;-77
2022/04/20 10:06:29;;;;;;;4.47;2.50;;;;;;;-145.69;43.49;71271.06;5073312;28;20209;-78
2022/04/20 10:08:55;;;;;;;5.80;2.10;;;;;;;-145.69;41.24;71263.09;5073274;28;20203;-79
2022/04/20 10:11:28;;;;;;;4.77;2.27;;;;;;;-145.69;45.36;71251.16;5073131;28;20582;-79
2022/04/20 10:16:47;;;;;;;3.00;1.90;;;;;;;-145.69;41.55;71231.28;5052103;28;20229;-79
2022/04/20 10:19:14;;;;;;;3.50;2.43;;;;;;;-145.69;40.41;71213.38;5053078;28;20234;-80
2022/04/20 10:21:53;;;;;;;2.80;2.00;;;;;;;-145.69;39.79;71213.38;5053254;28;20207;-80
2022/04/20 10:24:28;;;;;;;4.60;2.10;;;;;;;-145.69;43.17;71203.41;5053014;28;20195;-79
2022/04/20 10:26:57;;;;;;;5.00;1.90;;;;;;;-145.69;39.68;71227.28;5052709;28;20199;-79
2022/04/20 10:29:41;;;;;;;4.33;2.77;;;;;;;-145.69;44.19;71195.47;5052674;28;20249;-78
2022/04/20 10:32:15;;;;;;;3.13;2.20;;;;;;;-145.69;42.87;71183.50;5055131;28;20203;-79
2022/04/20 10:34:41;;;;;;;4.17;2.53;;;;;;;-145.69;41.88;71155.66;5065619;28;20195;-79
2022/04/20 10:37:17;;;;;;;4.57;3.00;;;;;;;-145.69;41.95;71151.69;5072877;28;20195;-78
2022/04/20 10:39:43;;;;;;;4.40;2.50;;;;;;;-145.69;42.92;71143.72;5072580;28;20237;-78
2022/04/20 10:42:21;;;;;;;5.13;2.33;;;;;;;-145.69;39.98;71161.63;5072876;28;20749;-81
2022/04/20 10:45:03;;;;;;;6.33;3.03;;;;;;;-145.69;41.23;71163.63;5072650;28;20202;-79
2022/04/20 10:47:36;;;;;;;4.03;2.57;;;;;;;-145.69;44.42;71137.75;5072763;28;20209;-78
2022/04/20 10:50:27;;;;;;;5.00;3.13;;;;;;;-145.69;42.76;71121.84;5072540;28;20222;-80
2022/04/20 10:52:58;;;;;;;4.27;2.40;;;;;;;-145.69;40.97;71147.69;5057501;28;20558;-80
2022/04/20 10:55:46;;;;;;;4.00;2.90;;;;;;;-145.69;40.43;71159.63;5072775;28;20203;-79
2022/04/20 10:58:18;;;;;;;4.77;2.70;;;;;;;-145.69;41.32;71149.69;5072293;28;20282;-79
2022/04/20 11:00:45;;;;;;;6.00;2.83;;;;;;;-145.69;41.31;71135.75;5072502;28;20618;-78
2022/04/20 11:03:13;;;;;;;4.87;2.80;;;;;;;-145.69;43.57;71123.81;5072277;28;20191;-78
2022/04/20 11:05:53;;;;;;;4.10;2.40;;;;;;;-145.69;40.37;71097.97;5072647;28;20289;-79
2022/04/20 11:08:22;;;;;;;4.53;2.40;;;;;;;-145.69;39.38;71088.00;5072572;28;20203;-78
2022/04/20 11:18:38;;;;;;;6.60;2.63;;;;;;;-145.69;39.39;71080.06;5072597;28;20204;-78
2022/04/20 11:19:48;;;;;;;3.87;2.50;;;;;;;-145.69;38.86;71115.88;5046178;28;20616;-78
2022/04/20 11:22:24;;;;;;;7.03;2.73;;;;;;;-145.69;38.27;71099.94;5072260;28;20225;-77
2022/04/20 11:25:02;;;;;;;4.87;2.37;;;;;;;-145.69;41.34;71064.13;5072416;28;20657;-76
2022/04/20 11:27:37;;;;;;;4.10;2.80;;;;;;;-145.69;40.65;71074.09;5071986;28;20207;-76
2022/04/20 11:30:05;;;;;;;5.03;2.70;;;;;;;-145.69;39.96;71082.03;5076046;28;20611;-76
2022/04/20 11:32:33;;;;;;;5.23;2.60;;;;;;;-145.69;44.80;71062.13;5075991;28;20650;-77
2022/04/20 11:35:11;;;;;;;4.83;3.00;;;;;;;-145.69;39.37;71050.22;5075753;28;20230;-79
2022/04/20 11:37:40;;;;;;;4.93;2.90;;;;;;;-145.69;40.88;71042.25;5075779;28;20562;-79
2022/04/20 11:40:21;;;;;;;5.23;2.77;;;;;;;-145.69;44.09;71026.31;5075617;28;20317;-79
2022/04/20 11:43:13;;;;;;;5.27;2.70;;;;;;;-145.69;44.76;71014.38;5075970;28;20203;-79
2022/04/20 11:45:46;;;;;;;2.97;2.47;;;;;;;-145.69;40.80;70984.53;5075789;28;20206;-80
2022/04/20 11:48:16;;;;;;;5.60;3.23;;;;;;;-145.69;41.74;70998.47;5075741;28;20206;-79
2022/04/20 11:50:45;;;;;;;4.93;3.17;;;;;;;-145.69;41.43;70978.56;5076103;28;20245;-79
2022/04/20 11:53:15;;;;;;;7.10;2.67;;;;;;;-145.69;39.80;70944.75;5075454;28;20205;-80
2022/04/20 11:55:48;;;;;;;3.43;2.30;;;;;;;-145.69;38.39;70944.75;5075588;28;20704;-80
2022/04/20 11:58:16;;;;;;;5.87;2.70;;;;;;;-145.69;38.23;70964.66;5075604;28;20203;-80